createdAt,value
2019-03-11T00:05:18.098Z,10.6
2019-03-11T00:10:40.957Z,14.7
2019-03-11T00:16:03.687Z,8.7
2019-03-11T00:21:26.426Z,11.2
2019-03-11T00:26:49.099Z,15.5
2019-03-11T00:32:12.112Z,11.4
2019-03-11T00:37:35.628Z,12.6
2019-03-11T00:42:58.887Z,12.7
2019-03-11T00:48:21.640Z,8.4
2019-03-11T00:53:44.421Z,13.3
2019-03-11T00:59:07.916Z,8.3
2019-03-11T01:04:31.545Z,9.9
2019-03-11T01:09:55.335Z,11.6
2019-03-11T01:15:18.038Z,8.4
2019-03-11T01:20:40.817Z,10.9
2019-03-11T01:26:03.740Z,7.9
2019-03-11T01:31:26.504Z,7.9
2019-03-11T01:36:49.335Z,6.3
2019-03-11T01:42:21.133Z,8.2
2019-03-11T01:47:43.987Z,4.2
2019-03-11T01:53:19.541Z,6.3
2019-03-11T01:58:51.615Z,6.5
2019-03-11T02:04:14.359Z,4.9
2019-03-11T02:09:37.153Z,4.8
2019-03-11T02:15:10.146Z,4.3
2019-03-11T02:20:41.974Z,7.7
2019-03-11T02:26:13.994Z,4.9
2019-03-11T02:32:14.345Z,4.2
2019-03-11T02:37:46.262Z,4.5
2019-03-11T02:43:09.024Z,7.1
2019-03-11T02:48:33.648Z,4
2019-03-11T02:54:08.786Z,6.1
2019-03-11T02:59:42.278Z,7.1
2019-03-11T03:05:14.967Z,8.6
2019-03-11T03:10:37.936Z,7
2019-03-11T03:16:00.924Z,10.9
2019-03-11T03:21:34.606Z,10.4
2019-03-11T03:27:07.213Z,9.8
2019-03-11T03:32:39.962Z,11.4
2019-03-11T03:38:02.656Z,9.2
2019-03-11T03:43:39.938Z,7.1
2019-03-11T03:49:12.594Z,8.1
2019-03-11T03:54:35.367Z,10.4
2019-03-11T03:59:59.282Z,8.5
2019-03-11T04:05:33.793Z,9.3
2019-03-11T04:11:09.149Z,12.4
2019-03-11T04:17:34.889Z,9.4
2019-03-11T04:23:08.967Z,8.5
2019-03-11T04:29:11.263Z,12
2019-03-11T04:34:43.558Z,11.1
2019-03-11T04:40:17.496Z,8.9
2019-03-11T04:45:51.916Z,10.9
2019-03-11T04:51:14.983Z,8.9
2019-03-11T04:56:37.831Z,9.1
2019-03-11T05:02:09.679Z,7.6
2019-03-11T05:08:11.957Z,7.9
2019-03-11T05:13:45.947Z,9.1
2019-03-11T05:19:08.727Z,7.5
2019-03-11T05:24:31.692Z,10.2
2019-03-11T05:30:05.288Z,9
2019-03-11T05:35:37.254Z,8.3
2019-03-11T05:41:09.652Z,7.3
2019-03-11T05:46:32.696Z,5.7
2019-03-11T05:52:06.554Z,6.9
2019-03-11T05:57:38.870Z,10.4
2019-03-11T06:03:01.705Z,8.4
2019-03-11T06:08:25.642Z,9.3
2019-03-11T06:13:57.368Z,8.1
2019-03-11T06:19:20.203Z,4.6
2019-03-11T06:24:43.143Z,7.6
2019-03-11T06:30:08.004Z,5.6
2019-03-11T06:35:28.960Z,7.6
2019-03-11T06:40:51.749Z,8.5
2019-03-11T06:46:14.776Z,8.2
2019-03-11T06:51:37.801Z,8.9
2019-03-11T06:57:00.558Z,8.9
2019-03-11T07:02:23.404Z,7.8
2019-03-11T07:07:46.333Z,7.1
2019-03-11T07:13:09.016Z,11.7
2019-03-11T07:18:31.944Z,8.4
2019-03-11T07:23:54.668Z,8.2
2019-03-11T07:29:18.405Z,11.3
2019-03-11T07:34:41.554Z,9.5
2019-03-11T07:40:04.894Z,6.6
2019-03-11T07:45:28.178Z,12.9
2019-03-11T07:51:26.470Z,14.6
2019-03-11T07:56:49.245Z,7.9
2019-03-11T08:02:12.859Z,12.8
2019-03-11T08:07:35.950Z,8.3
2019-03-11T08:12:59.002Z,8.8
2019-03-11T08:18:35.159Z,7.8
2019-03-11T08:24:04.983Z,10.4
2019-03-11T08:29:28.224Z,8.9
2019-03-11T08:34:51.064Z,9.6
2019-03-11T08:40:14.363Z,8.6
2019-03-11T08:45:39.935Z,9.4
2019-03-11T08:51:04.850Z,9.2
2019-03-11T08:56:28.129Z,9.4
2019-03-11T09:01:59.760Z,8.8
2019-03-11T09:07:32.143Z,11.3
2019-03-11T09:13:05.985Z,5.4
2019-03-11T09:18:39.162Z,9.2
2019-03-11T09:24:18.603Z,3.9
2019-03-11T09:29:34.877Z,8.1
2019-03-11T09:34:58.966Z,7.1
2019-03-11T09:40:21.831Z,6.7
2019-03-11T09:45:45.242Z,10.2
2019-03-11T09:51:08.917Z,7.7
2019-03-11T09:56:43.415Z,8.9
2019-03-11T10:02:04.334Z,12.2
2019-03-11T10:07:27.091Z,8.6
2019-03-11T10:12:50.426Z,9.5
2019-03-11T10:18:13.942Z,13.3
2019-03-11T10:24:38.004Z,11.2
2019-03-11T10:30:00.974Z,13.8
2019-03-11T10:35:37.901Z,10.1
2019-03-11T10:41:01.032Z,11.6
2019-03-11T10:46:23.818Z,10.8
2019-03-11T10:51:46.640Z,9.1
2019-03-11T10:57:09.475Z,12.4
2019-03-11T11:02:32.230Z,9.6
2019-03-11T11:07:54.970Z,10.7
2019-03-11T11:13:17.721Z,11.4
2019-03-11T11:18:40.345Z,9.1
2019-03-11T11:24:05.303Z,12.1
2019-03-11T11:29:28.921Z,12.4
2019-03-11T11:34:51.656Z,7.2
2019-03-11T11:40:14.509Z,11.6
2019-03-11T11:45:37.240Z,11.1
2019-03-11T11:51:00.624Z,10.4
2019-03-11T11:56:23.949Z,9.3
2019-03-11T12:01:46.862Z,11.1
2019-03-11T12:07:09.519Z,7.6
2019-03-11T12:12:32.181Z,12
2019-03-11T12:17:54.808Z,11.7
2019-03-11T12:23:17.422Z,10.6
2019-03-11T12:28:40.261Z,8.7
2019-03-11T12:34:03.047Z,4.4
2019-03-11T12:39:25.966Z,4.9
2019-03-11T12:44:48.666Z,3.7
2019-03-11T12:50:11.394Z,7.4
2019-03-11T12:55:35.100Z,6.6
2019-03-11T13:00:57.713Z,6.2
2019-03-11T13:06:20.346Z,5.4
2019-03-11T13:11:43.212Z,6.3
2019-03-11T13:17:05.928Z,5.5
2019-03-11T13:22:28.767Z,5.4
2019-03-11T13:27:51.355Z,7.2
2019-03-11T13:33:14.078Z,9.5
2019-03-11T13:38:37.465Z,4.7
2019-03-11T13:44:00.315Z,6.5
2019-03-11T13:49:23.083Z,6.7
2019-03-11T13:54:45.771Z,11
2019-03-11T14:00:08.552Z,5.4
2019-03-11T14:05:31.392Z,8.2
2019-03-11T14:10:54.000Z,5.9
2019-03-11T14:16:16.740Z,6.4
2019-03-11T14:21:39.459Z,7.1
2019-03-11T14:27:02.068Z,9.7
2019-03-11T14:32:24.774Z,9.7
2019-03-11T14:37:47.582Z,9.4
2019-03-11T14:43:10.390Z,8.5
2019-03-11T14:48:33.355Z,6.8
2019-03-11T14:53:56.087Z,7.6
2019-03-11T14:59:18.709Z,5.6
2019-03-11T15:04:41.386Z,6
2019-03-11T15:10:04.358Z,8.7
2019-03-11T15:15:30.324Z,6
2019-03-11T15:20:53.069Z,10.3
2019-03-11T15:26:24.620Z,10
2019-03-11T15:31:39.775Z,9.3
2019-03-11T15:37:12.403Z,6.3
2019-03-11T15:42:35.484Z,11
2019-03-11T15:47:58.380Z,5.8
2019-03-11T15:53:21.023Z,8.8
2019-03-11T15:58:44.161Z,8.3
2019-03-11T16:04:06.989Z,9.3
2019-03-11T16:09:29.892Z,5.6
2019-03-11T16:14:52.566Z,5.3
2019-03-11T16:20:15.609Z,6
2019-03-11T16:25:48.007Z,5.9
2019-03-11T16:31:10.588Z,3.7
2019-03-11T16:37:01.919Z,5.7
2019-03-11T16:42:24.961Z,4
2019-03-11T16:47:47.826Z,7.3
2019-03-11T16:53:10.834Z,5
2019-03-11T16:58:33.589Z,3.8
2019-03-11T17:03:56.346Z,4.6
2019-03-11T17:09:19.012Z,4
2019-03-11T17:14:41.735Z,7
2019-03-11T17:20:14.598Z,3.8
2019-03-11T17:25:46.338Z,3.5
2019-03-11T17:31:09.301Z,5.9
2019-03-11T17:36:32.220Z,4.3
2019-03-11T17:42:04.989Z,5.9
2019-03-11T17:47:37.978Z,5.9
2019-03-11T17:53:19.456Z,6.4
2019-03-11T17:58:41.965Z,7.4
2019-03-11T18:04:05.403Z,8
2019-03-11T18:09:28.253Z,8.2
2019-03-11T18:14:51.012Z,9.6
2019-03-11T18:20:15.412Z,8.5
2019-03-11T18:25:38.276Z,8
2019-03-11T18:31:00.980Z,7.9
2019-03-11T18:36:23.888Z,9.6
2019-03-11T18:41:46.753Z,8.2
2019-03-11T18:47:12.965Z,5.9
2019-03-11T18:52:35.618Z,10.4
2019-03-11T18:57:58.288Z,6.2
2019-03-11T19:03:22.270Z,5.3
2019-03-11T19:08:44.899Z,7.7
2019-03-11T19:14:08.370Z,8.4
2019-03-11T19:19:31.043Z,8.8
2019-03-11T19:24:54.817Z,8.9
2019-03-11T19:30:17.846Z,7.9
2019-03-11T19:35:41.549Z,5.8
2019-03-11T19:41:04.265Z,6.9
2019-03-11T19:46:27.678Z,10
2019-03-11T19:51:50.486Z,10
2019-03-11T19:57:13.243Z,10.9
2019-03-11T20:02:36.015Z,5.6
2019-03-11T20:07:58.804Z,5.9
2019-03-11T20:13:21.852Z,8.6
2019-03-11T20:18:44.659Z,7.4
2019-03-11T20:24:07.371Z,9.9
2019-03-11T20:29:30.573Z,8.6
2019-03-11T20:34:54.539Z,8.6
2019-03-11T20:40:18.542Z,7.6
2019-03-11T20:45:41.198Z,9.1
2019-03-11T20:51:03.815Z,10.9
2019-03-11T20:56:36.140Z,12.5
2019-03-11T21:01:58.906Z,11.9
2019-03-11T21:07:21.707Z,11.5
2019-03-11T21:12:44.476Z,14.4
2019-03-11T21:18:07.284Z,13.7
2019-03-11T21:23:30.353Z,11
2019-03-11T21:29:02.314Z,17.700001
2019-03-11T21:34:34.059Z,14.7
2019-03-11T21:39:56.743Z,14.7
2019-03-11T21:45:19.672Z,16.4
2019-03-11T21:50:43.531Z,19.200001
2019-03-11T21:56:06.144Z,13.9
2019-03-11T22:01:28.912Z,18.6
2019-03-11T22:06:51.650Z,13.1
2019-03-11T22:12:14.632Z,14.4
2019-03-11T22:17:37.284Z,14
2019-03-11T22:23:00.969Z,17.700001
2019-03-11T22:28:23.693Z,11.4
2019-03-11T22:33:46.257Z,16.4
2019-03-11T22:39:09.927Z,13.2
2019-03-11T22:44:32.713Z,13.4
2019-03-11T22:49:55.335Z,14.4
2019-03-11T22:55:18.206Z,10
2019-03-11T23:00:41.031Z,17.5
2019-03-11T23:06:03.691Z,12.3
2019-03-11T23:11:26.374Z,16.9
2019-03-11T23:16:49.853Z,12.1
2019-03-11T23:22:12.991Z,13
2019-03-11T23:27:35.632Z,13.1
2019-03-11T23:32:58.332Z,14.3
2019-03-11T23:38:21.053Z,14.7
2019-03-11T23:43:43.934Z,18.9
2019-03-11T23:49:08.176Z,18
2019-03-11T23:54:30.921Z,23
2019-03-11T23:59:53.720Z,22.1
